Aviation Digital Data Service (ADDS)

Output produced by METARs form (0201 UTC 26 June 2017)
found at http://aviationweather.gov/adds/metars/
 
KDAG 260150Z AUTO 27018G27KT 10SM CLR 41/M03 A2986 RMK AO2 PK WND 29027/0106 SLP076 T04061033
KDAG 252320Z 2600/2624 26019G26KT P6SM SKC 
     FM260500 26016G23KT P6SM SKC 
     FM261700 27023G30KT P6SM SKC
       
KEDW 260158Z AUTO 29020G27KT 10SM CLR 37/M06 A2992 RMK AO2 PK WND 30033/42 SLP102 T03741056
KVCV 260155Z AUTO 30012G17KT 10SM CLR 37/M02 A2998 RMK AO2
KONT 260153Z 25009KT 10SM CLR 32/15 A2987 RMK AO2 SLP096 T03170150
KONT 252330Z 2600/2706 25013G20KT P6SM FEW100 
     FM260300 VRB06KT P6SM SKC 
     FM261800 25011KT P6SM SKC 
     FM262000 25015G24KT P6SM SKC 
     FM270300 24007KT P6SM SKC
       
KNID 260156Z AUTO 25012KT 10SM CLR 38/M09 A2988 RMK AO2 SLP091 T03831094 $
KSNA 260153Z 23005KT 10SM CLR 25/16 A2987 RMK AO2 SLP112 T02500161
KSNA 252330Z 2600/2624 22008KT P6SM SKC 
     FM260400 VRB06KT P6SM FEW004 
     FM261200 VRB03KT P6SM VCFG SCT003 
     TEMPO 2612/2615 1SM BR VV003 
     FM261800 22010G17KT 6SM HZ SKC
       
KSAN 260151Z 31007KT 10SM FEW006 23/17 A2987 RMK AO2 SLP115 T02280172
KSAN 252330Z 2600/2706 30011KT P6SM SCT010 
     FM260400 VRB06KT P6SM SCT004 
     FM260900 VRB05KT 1SM BR VCFG BKN003 
     FM261500 VRB05KT P6SM FEW005 
     FM261800 30011KT P6SM SKC 
     FM270400 VRB06KT P6SM SCT004
       
KNXP 260156Z AUTO 29019KT 10SM CLR 42/M07 A2990 RMK AO2 SLP080 T04221072
TAF KNXP 2521/2621 23008KT 9999 FEW200 QNH2990INS 
     BECMG 2522/2600 25015G25KT 9999 FEW200 QNH2988INS 
     BECMG 2605/2607 31010KT 9999 FEW200 QNH2997INS 
     FM262030 25018G28KT 9999 FEW200 QNH2995INS AUTOMATED SENSOR METWATCH 2521 TIL 2614 T44/2522Z T28/2612Z
       
KPSP 260153Z 30013G20KT 10SM CLR 45/M02 A2974 RMK AO2 PK WND 33027/0103 SLP063 T04501017
KPSP 252330Z 2600/2624 32015G25KT P6SM FEW100 
     FM260600 VRB06KT P6SM SKC 
     FM262000 34015G30KT P6SM FEW100
       
KLAX 260153Z 25007KT 10SM CLR 21/17 A2987 RMK AO2 SLP113 T02060167
KLAX 252336Z 2600/2706 24014G22KT P6SM SKC 
     FM260300 25007KT P6SM SKC 
     FM261000 VRB03KT P6SM SCT006 
     FM261600 26007KT P6SM SKC 
     FM262000 25014G22KT P6SM SKC
       
KCNO 260153Z 28009KT 10SM CLR 32/14 A2987 RMK AO2 SLP107 T03170144
KSMO 260151Z 19006KT 10SM CLR 20/16 A2987 RMK AO2 SLP113 T02000161
KSMO 252356Z 2600/2624 23009KT P6SM SKC 
     FM260330 VRB03KT P6SM SKC 
     FM261100 VRB03KT 6SM BR SCT005 
     FM261600 23007KT P6SM SKC 
     FM262000 25011KT P6SM SKC
       
KLGB 260153Z 31009KT 10SM CLR 24/14 A2986 RMK AO2 SLP111 T02440139
KLGB 252336Z 2600/2624 30009KT P6SM SKC 
     FM261000 VRB03KT P6SM SCT008 
     FM261600 18007KT P6SM SKC 
     FM262200 30012KT P6SM SKC
       
KVNY 260151Z 14008KT 10SM CLR 31/15 A2986 RMK AO2 SLP100 T03110150
KVNY 252356Z 2600/2624 29012KT P6SM SKC 
     FM260400 VRB03KT P6SM SKC 
     FM262000 28012KT P6SM SKC
       
KBUR 260153Z 13011KT 10SM CLR 28/14 A2986 RMK AO2 SLP098 T02830144 $
KBUR 252336Z 2600/2624 14008KT P6SM SKC 
     FM260400 11005KT P6SM SKC 
     FM260800 VRB03KT P6SM SKC 
     FM261900 17012KT P6SM SKC
       
KBFL 260154Z 34009KT 10SM CLR 42/07 A2983 RMK AO2 SLP094 T04170072
KBFL 252327Z 2600/2624 32009KT P6SM SKC 
     FM260600 34005KT P6SM SKC 
     FM261200 VRB03KT P6SM SKC 
     FM262100 30013G19KT P6SM SKC
       
KPMD 260153Z AUTO 30017G26KT 10SM CLR 37/01 A2997 RMK AO2 PK WND 32027/0102 SLP113 T03720006
KPMD 252356Z 2600/2624 26018G28KT P6SM SKC 
     FM260400 26010KT P6SM SKC 
     FM261700 26015G25KT P6SM SKC 
     FM262200 25022G32KT P6SM SKC
       
KOXR 260151Z 27011KT 10SM CLR 19/14 A2986 RMK AO2 SLP112 T01890144
KOXR 252356Z 2600/2624 27014KT P6SM SKC 
     FM260300 28009KT P6SM SKC 
     FM260800 29005KT 5SM BR BKN006 
     FM261700 27008KT P6SM FEW010 
     FM262000 27014G20KT P6SM SKC
       
KWJF 260156Z 30021G25KT 10SM CLR 37/M01 A2995 RMK AO2 PK WND 30027/0127 SLP116 T03721006
KWJF 252356Z 2600/2624 27019G27KT P6SM SKC 
     FM260400 27015KT P6SM SKC 
     FM261700 25015G25KT P6SM SKC 
     FM262200 24024G34KT P6SM SKC
       
KCMA 260155Z 26006KT 10SM CLR 21/15 A2987 RMK AO2 SLP123 T02060150
KCMA 252356Z 2600/2624 24009KT P6SM SKC 
     FM260300 VRB03KT P6SM SKC 
     FM261000 29005KT 6SM BR SCT006 
     FM261600 24008KT P6SM FEW010 
     FM262000 25010KT P6SM SKC
       
KFAT 260153Z 32010KT 10SM FEW100 38/15 A2983 RMK AO2 SLP098 TCU OMTNS DSNT N HZ FU DSNT ALQDS T03780150
KFAT 252327Z 2600/2624 30010KT P6SM FEW110 
     FM261200 31005KT P6SM SKC
       
KEED 260056Z AUTO 30015G20KT 10SM BKN110 48/M09 A2969 RMK AO2 PK WND 25026/2359 SLP009 T04831094 $
KEED 252320Z 2600/2624 23010G17KT P6SM FEW150 
     FM260400 28013KT P6SM SKC 
     FM261800 24012G19KT P6SM SKC
       
KLSV 260158Z AUTO 23010KT 10SM CLR 43/M02 A2976 RMK AO2 SLP046 T04291024 $
TAF KLSV 252300Z 2523/2705 04009KT 9999 FEW150 QNH2977INS 
     BECMG 2602/2603 VRB06KT 9999 SKC QNH2978INS 
     BECMG 2616/2617 22012G18KT 9999 SKC QNH2983INS 
     BECMG 2619/2620 22015G25KT 9999 SKC QNH2973INS 
     TEMPO 2623/2703 22025G35KT 520009 TX44/2523Z TN31/2611Z
       
KLAS 260156Z 22009G18KT 10SM FEW150 43/M13 A2980 RMK AO2 SLP055 T04281128
KLAS 252320Z 2600/2624 23011G14KT P6SM SCT150 
     FM260500 26014G19KT P6SM FEW150 
     FM261800 21016G24KT P6SM SKC
       
KHII 260155Z AUTO 21011KT 10SM CLR 47/M01 A2969 RMK AO2
KIFP 260155Z AUTO 25014KT 10SM CLR 47/M05 A2966 RMK AO2
KIFP 252320Z 2600/2624 19013KT P6SM FEW150 
     FM260600 32013KT P6SM SKC 
     FM261900 19014G21KT P6SM SKC